createdAt,value
2022-12-09T00:01:11.303Z,-2.92
2022-12-09T00:03:38.618Z,-2.90
2022-12-09T00:06:11.953Z,-2.85
2022-12-09T00:08:38.842Z,-2.70
2022-12-09T00:11:06.700Z,-2.60
2022-12-09T00:13:34.234Z,-2.50
2022-12-09T00:16:05.890Z,-2.44
2022-12-09T00:18:32.873Z,-2.46
2022-12-09T00:20:59.739Z,-2.53
2022-12-09T00:23:26.644Z,-2.63
2022-12-09T00:25:57.313Z,-2.70
2022-12-09T00:28:23.981Z,-2.75
2022-12-09T00:30:51.023Z,-2.69
2022-12-09T00:33:17.844Z,-2.62
2022-12-09T00:35:44.546Z,-2.60
2022-12-09T00:38:11.450Z,-2.60
2022-12-09T00:40:38.112Z,-2.59
2022-12-09T00:43:04.753Z,-2.52
2022-12-09T00:45:31.371Z,-2.50
2022-12-09T00:47:58.521Z,-2.48
2022-12-09T00:50:25.862Z,-2.40
2022-12-09T00:52:52.618Z,-2.37
2022-12-09T00:55:19.504Z,-2.35
2022-12-09T00:57:46.367Z,-2.29
2022-12-09T01:00:13.359Z,-2.23
2022-12-09T01:02:40.205Z,-2.20
2022-12-09T01:05:07.604Z,-2.23
2022-12-09T01:07:34.463Z,-2.31
2022-12-09T01:10:01.085Z,-2.39
2022-12-09T01:12:27.788Z,-2.38
2022-12-09T01:14:54.660Z,-2.44
2022-12-09T01:17:21.470Z,-2.51
2022-12-09T01:19:48.326Z,-2.55
2022-12-09T01:22:15.452Z,-2.52
2022-12-09T01:24:42.652Z,-2.55
2022-12-09T01:27:09.480Z,-2.57
2022-12-09T01:29:36.290Z,-2.60
2022-12-09T01:32:03.684Z,-2.58
2022-12-09T01:34:30.893Z,-2.59
2022-12-09T01:36:57.543Z,-2.58
2022-12-09T01:39:24.582Z,-2.61
2022-12-09T01:41:52.046Z,-2.67
2022-12-09T01:44:18.923Z,-2.64
2022-12-09T01:46:47.101Z,-2.68
2022-12-09T01:49:37.366Z,-2.76
2022-12-09T01:52:23.847Z,-2.77
2022-12-09T01:54:52.875Z,-2.81
2022-12-09T01:57:19.869Z,-2.94
2022-12-09T01:59:46.805Z,-2.97
2022-12-09T02:02:19.088Z,-2.86
2022-12-09T02:04:49.300Z,-2.80
2022-12-09T02:07:19.292Z,-2.76
2022-12-09T02:09:47.113Z,-2.77
2022-12-09T02:12:34.212Z,-2.68
2022-12-09T02:15:43.578Z,-2.63
2022-12-09T02:18:33.054Z,-2.57
2022-12-09T02:21:05.184Z,-2.48
2022-12-09T02:23:41.365Z,-2.44
2022-12-09T02:26:25.332Z,-2.55
2022-12-09T02:29:17.151Z,-2.50
2022-12-09T02:31:54.197Z,-2.47
2022-12-09T02:34:23.220Z,-2.50
2022-12-09T02:37:04.463Z,-2.45
2022-12-09T02:39:43.249Z,-2.49
2022-12-09T02:42:16.465Z,-2.48
2022-12-09T02:44:47.558Z,-2.48
2022-12-09T02:47:18.920Z,-2.51
2022-12-09T02:49:50.672Z,-2.61
2022-12-09T02:52:19.785Z,-2.72
2022-12-09T02:54:47.654Z,-2.73
2022-12-09T02:57:24.081Z,-2.76
2022-12-09T02:59:50.820Z,-2.75
2022-12-09T03:02:31.777Z,-2.73
2022-12-09T03:05:27.432Z,-2.57
2022-12-09T03:08:00.378Z,-2.58
2022-12-09T03:10:36.811Z,-2.62
2022-12-09T03:13:11.768Z,-2.79
2022-12-09T03:15:44.145Z,-2.98
2022-12-09T03:18:15.982Z,-3.08
2022-12-09T03:20:45.204Z,-3.17
2022-12-09T03:23:16.097Z,-3.17
2022-12-09T03:25:52.334Z,-3.16
2022-12-09T03:28:28.520Z,-3.09
2022-12-09T03:30:59.046Z,-3.11
2022-12-09T03:33:28.124Z,-3.11
2022-12-09T03:35:58.218Z,-3.08
2022-12-09T03:38:28.862Z,-2.99
2022-12-09T03:41:14.840Z,-2.94
2022-12-09T03:43:48.154Z,-2.93
2022-12-09T03:46:15.178Z,-2.92
2022-12-09T03:48:42.190Z,-2.89
2022-12-09T03:51:35.757Z,-2.91
2022-12-09T03:54:13.861Z,-2.96
2022-12-09T03:56:44.096Z,-2.93
2022-12-09T03:59:13.731Z,-2.92
2022-12-09T04:01:42.913Z,-2.88
2022-12-09T04:04:10.188Z,-2.86
2022-12-09T04:06:37.224Z,-2.81
2022-12-09T04:09:05.415Z,-2.79
2022-12-09T04:11:33.443Z,-2.71
2022-12-09T04:14:00.530Z,-2.70
2022-12-09T04:16:27.775Z,-2.69
2022-12-09T04:18:54.777Z,-2.66
2022-12-09T04:21:22.005Z,-2.65
2022-12-09T04:23:48.698Z,-2.67
2022-12-09T04:26:23.764Z,-2.70
2022-12-09T04:28:51.246Z,-2.77
2022-12-09T04:31:19.111Z,-2.86
2022-12-09T04:33:46.840Z,-2.95
2022-12-09T04:36:16.921Z,-2.91
2022-12-09T04:38:44.263Z,-2.90
2022-12-09T04:41:11.768Z,-2.90
2022-12-09T04:43:38.847Z,-3.00
2022-12-09T04:46:08.375Z,-3.00
2022-12-09T04:48:35.053Z,-3.09
2022-12-09T04:51:02.056Z,-3.15
2022-12-09T04:53:29.299Z,-3.18
2022-12-09T04:56:19.090Z,-3.17
2022-12-09T04:58:46.793Z,-3.16
2022-12-09T05:01:18.132Z,-3.05
2022-12-09T05:03:50.198Z,-2.91
2022-12-09T05:06:18.448Z,-2.87
2022-12-09T05:08:45.894Z,-2.78
2022-12-09T05:11:14.851Z,-2.73
2022-12-09T05:13:41.960Z,-2.69
2022-12-09T05:16:15.999Z,-2.69
2022-12-09T05:18:45.016Z,-2.80
2022-12-09T05:21:15.079Z,-2.88
2022-12-09T05:23:43.060Z,-2.84
2022-12-09T05:26:13.830Z,-2.88
2022-12-09T05:28:41.029Z,-2.88
2022-12-09T05:31:11.816Z,-2.74
2022-12-09T05:33:39.604Z,-2.65
2022-12-09T05:36:11.213Z,-2.57
2022-12-09T05:38:38.256Z,-2.51
2022-12-09T05:41:05.471Z,-2.51
2022-12-09T05:43:33.549Z,-2.47
2022-12-09T05:46:01.881Z,-2.45
2022-12-09T05:48:29.551Z,-2.41
2022-12-09T05:51:05.303Z,-2.43
2022-12-09T05:53:32.816Z,-2.38
2022-12-09T05:56:00.040Z,-2.31
2022-12-09T05:58:27.124Z,-2.23
2022-12-09T06:00:56.720Z,-2.16
2022-12-09T06:03:25.272Z,-2.05
2022-12-09T06:05:52.652Z,-2.03
2022-12-09T06:08:19.948Z,-1.98
2022-12-09T06:10:47.339Z,-1.95
2022-12-09T06:13:14.653Z,-1.98
2022-12-09T06:15:41.635Z,-1.94
2022-12-09T06:18:08.914Z,-1.93
2022-12-09T06:20:40.013Z,-1.89
2022-12-09T06:23:07.384Z,-1.90
2022-12-09T06:25:34.350Z,-1.93
2022-12-09T06:28:01.473Z,-1.86
2022-12-09T06:30:28.528Z,-1.90
2022-12-09T06:32:55.620Z,-1.84
2022-12-09T06:35:22.794Z,-1.81
2022-12-09T06:37:52.969Z,-1.79
2022-12-09T06:40:22.740Z,-1.79
2022-12-09T06:42:51.259Z,-1.84
2022-12-09T06:45:19.972Z,-1.87
2022-12-09T06:47:47.768Z,-1.85
2022-12-09T06:50:15.568Z,-1.80
2022-12-09T06:52:42.829Z,-1.80
2022-12-09T06:55:10.561Z,-1.72
2022-12-09T06:57:37.739Z,-1.73
2022-12-09T07:00:06.420Z,-1.73
2022-12-09T07:02:36.750Z,-1.73
2022-12-09T07:05:04.206Z,-1.74
2022-12-09T07:07:31.917Z,-1.70
2022-12-09T07:09:59.042Z,-1.71
2022-12-09T07:12:26.595Z,-1.73
2022-12-09T07:14:53.495Z,-1.74
2022-12-09T07:17:20.853Z,-1.65
2022-12-09T07:19:48.239Z,-1.66
2022-12-09T07:22:15.268Z,-1.70
2022-12-09T07:24:42.552Z,-1.69
2022-12-09T07:27:19.285Z,-1.58
2022-12-09T07:29:47.264Z,-1.63
2022-12-09T07:32:14.888Z,-1.68
2022-12-09T07:34:42.448Z,-1.75
2022-12-09T07:37:09.971Z,-1.72
2022-12-09T07:39:36.836Z,-1.76
2022-12-09T07:42:03.848Z,-1.76
2022-12-09T07:44:31.223Z,-1.77
2022-12-09T07:46:58.595Z,-1.75
2022-12-09T07:49:25.887Z,-1.72
2022-12-09T07:51:52.841Z,-1.75
2022-12-09T07:54:21.245Z,-1.75
2022-12-09T07:56:48.699Z,-1.65
2022-12-09T07:59:16.897Z,-1.58
2022-12-09T08:01:44.822Z,-1.60
2022-12-09T08:04:12.313Z,-1.59
2022-12-09T08:06:39.461Z,-1.60
2022-12-09T08:09:09.414Z,-1.56
2022-12-09T08:11:36.812Z,-1.57
2022-12-09T08:14:11.402Z,-1.55
2022-12-09T08:16:40.807Z,-1.55
2022-12-09T08:19:08.119Z,-1.43
2022-12-09T08:21:35.331Z,-1.40
2022-12-09T08:24:06.056Z,-1.36
2022-12-09T08:26:34.992Z,-1.41
2022-12-09T08:29:02.090Z,-1.40
2022-12-09T08:31:30.311Z,-1.33
2022-12-09T08:33:58.601Z,-1.26
2022-12-09T08:36:27.574Z,-1.21
2022-12-09T08:38:56.205Z,-1.15
2022-12-09T08:41:37.448Z,-1.19
2022-12-09T08:44:17.990Z,-1.27
2022-12-09T08:46:51.034Z,-1.22
2022-12-09T08:49:22.085Z,-1.25
2022-12-09T08:51:50.951Z,-1.24
2022-12-09T08:54:18.876Z,-1.21
2022-12-09T08:56:55.156Z,-1.18
2022-12-09T08:59:23.001Z,-1.07
2022-12-09T09:01:50.463Z,-1.01
2022-12-09T09:04:19.708Z,-0.99
2022-12-09T09:06:50.180Z,-0.93
2022-12-09T09:09:19.283Z,-0.93
2022-12-09T09:11:46.719Z,-0.93
2022-12-09T09:14:14.970Z,-0.88
2022-12-09T09:16:43.436Z,-0.85
2022-12-09T09:19:20.654Z,-0.92
2022-12-09T09:21:47.936Z,-1.01
2022-12-09T09:24:18.239Z,-1.05
2022-12-09T09:26:45.780Z,-0.99
2022-12-09T09:29:16.826Z,-1.00
2022-12-09T09:31:44.058Z,-0.95
2022-12-09T09:34:11.446Z,-0.82
2022-12-09T09:36:39.688Z,-0.79
2022-12-09T09:39:06.910Z,-0.91
2022-12-09T09:41:46.373Z,-0.93
2022-12-09T09:44:33.172Z,-0.92
2022-12-09T09:47:02.097Z,-0.89
2022-12-09T09:49:48.531Z,-0.88
2022-12-09T09:52:22.560Z,-0.96
2022-12-09T09:54:49.506Z,-1.03
2022-12-09T09:57:20.840Z,-1.05
2022-12-09T10:00:23.211Z,-1.01
2022-12-09T10:03:02.508Z,-0.97
2022-12-09T10:05:30.481Z,-0.90
2022-12-09T10:08:21.999Z,-0.89
2022-12-09T10:11:08.117Z,-0.89
2022-12-09T10:14:24.159Z,-0.88
2022-12-09T10:16:59.394Z,-0.96
2022-12-09T10:19:39.541Z,-1.05
2022-12-09T10:22:15.445Z,-1.11
2022-12-09T10:24:55.434Z,-1.13
2022-12-09T10:27:36.004Z,-1.01
2022-12-09T10:30:11.853Z,-1.01
2022-12-09T10:32:40.168Z,-0.93
2022-12-09T10:35:22.642Z,-0.89
2022-12-09T10:37:52.631Z,-0.88
2022-12-09T10:40:36.213Z,-0.88
2022-12-09T10:43:36.305Z,-0.86
2022-12-09T10:46:19.535Z,-0.74
2022-12-09T10:48:47.464Z,-0.72
2022-12-09T10:51:18.639Z,-0.80
2022-12-09T10:53:49.579Z,-0.77
2022-12-09T10:56:28.849Z,-0.71
2022-12-09T10:59:14.553Z,-0.70
2022-12-09T11:01:55.088Z,-0.79
2022-12-09T11:04:43.997Z,-0.81
2022-12-09T11:07:23.190Z,-0.71
2022-12-09T11:09:56.716Z,-0.63
2022-12-09T11:12:27.430Z,-0.61
2022-12-09T11:14:58.388Z,-0.56
2022-12-09T11:17:31.583Z,-0.59
2022-12-09T11:20:21.424Z,-0.56
2022-12-09T11:23:15.487Z,-0.50
2022-12-09T11:25:59.429Z,-0.55
2022-12-09T11:28:38.593Z,-0.47
2022-12-09T11:31:33.402Z,-0.58
2022-12-09T11:34:18.040Z,-0.57
2022-12-09T11:36:52.425Z,-0.44
2022-12-09T11:39:31.330Z,-0.39
2022-12-09T11:42:18.848Z,-0.32
2022-12-09T11:44:52.443Z,-0.25
2022-12-09T11:47:50.467Z,-0.22
2022-12-09T11:50:24.139Z,-0.27
2022-12-09T11:53:12.898Z,-0.36
2022-12-09T11:55:51.809Z,-0.38
2022-12-09T11:58:25.363Z,-0.43
2022-12-09T12:00:58.498Z,-0.41
2022-12-09T12:03:47.389Z,-0.32
2022-12-09T12:06:21.532Z,-0.23
2022-12-09T12:09:34.309Z,-0.25
2022-12-09T12:12:36.329Z,-0.20
2022-12-09T12:15:15.012Z,-0.11
2022-12-09T12:17:45.999Z,-0.10
2022-12-09T12:20:13.636Z,-0.08
2022-12-09T12:22:51.522Z,-0.12
2022-12-09T12:25:24.006Z,-0.17
2022-12-09T12:28:18.202Z,-0.13
2022-12-09T12:31:05.661Z,-0.11
2022-12-09T12:34:23.133Z,-0.11
2022-12-09T12:36:46.086Z,-0.02
2022-12-09T12:39:25.243Z,0.03
2022-12-09T12:42:07.288Z,-0.01
2022-12-09T12:45:28.075Z,-0.05
2022-12-09T12:47:57.763Z,-0.12
2022-12-09T12:51:06.562Z,-0.09
2022-12-09T12:53:55.471Z,-0.07
2022-12-09T12:56:41.084Z,-0.16
2022-12-09T12:59:11.803Z,-0.14
2022-12-09T13:01:57.524Z,-0.08
2022-12-09T13:04:46.949Z,-0.03
2022-12-09T13:07:20.075Z,0.00
2022-12-09T13:10:35.162Z,-0.01
2022-12-09T13:13:04.703Z,-0.03
2022-12-09T13:15:32.364Z,0.00
2022-12-09T13:18:17.110Z,0.05
2022-12-09T13:20:52.419Z,0.16
2022-12-09T13:23:33.000Z,0.19
2022-12-09T13:26:30.558Z,0.27
2022-12-09T13:29:06.596Z,0.29
2022-12-09T13:31:35.604Z,0.18
2022-12-09T13:34:27.962Z,0.18
2022-12-09T13:36:54.593Z,0.18
2022-12-09T13:39:39.668Z,0.22
2022-12-09T13:42:53.909Z,0.18
2022-12-09T13:45:43.422Z,0.12
2022-12-09T13:48:17.070Z,0.15
2022-12-09T13:50:51.465Z,0.14
2022-12-09T13:53:21.216Z,0.06
2022-12-09T13:55:53.072Z,-0.02
2022-12-09T13:58:37.663Z,-0.06
2022-12-09T14:01:04.844Z,-0.04
2022-12-09T14:03:37.151Z,-0.02
2022-12-09T14:06:17.642Z,0.04
2022-12-09T14:08:51.121Z,-0.01
2022-12-09T14:11:44.317Z,-0.01
2022-12-09T14:14:23.252Z,0.00
2022-12-09T14:16:51.357Z,0.00
2022-12-09T14:19:24.074Z,-0.05
2022-12-09T14:22:19.671Z,-0.04
2022-12-09T14:25:19.125Z,-0.02
2022-12-09T14:28:10.848Z,-0.01
2022-12-09T14:31:04.775Z,-0.09
2022-12-09T14:33:47.737Z,-0.15
2022-12-09T14:36:14.304Z,-0.13
2022-12-09T14:39:24.137Z,-0.10
2022-12-09T14:41:59.188Z,-0.12
2022-12-09T14:44:43.858Z,-0.19
2022-12-09T14:47:24.519Z,-0.21
2022-12-09T14:49:54.041Z,-0.24
2022-12-09T14:52:29.050Z,-0.23
2022-12-09T14:54:59.074Z,-0.22
2022-12-09T14:57:41.553Z,-0.22
2022-12-09T15:00:25.015Z,-0.23
2022-12-09T15:03:23.461Z,-0.17
2022-12-09T15:05:40.127Z,-0.21
2022-12-09T15:08:06.823Z,-0.24
2022-12-09T15:10:36.504Z,-0.18
2022-12-09T15:13:05.430Z,-0.21
2022-12-09T15:15:36.491Z,-0.27
2022-12-09T15:18:07.741Z,-0.19
2022-12-09T15:20:37.681Z,-0.13
2022-12-09T15:23:19.416Z,-0.09
2022-12-09T15:25:48.625Z,-0.13
2022-12-09T15:28:27.076Z,-0.16
2022-12-09T15:30:58.918Z,-0.13
2022-12-09T15:33:27.104Z,-0.12
2022-12-09T15:36:05.000Z,-0.14
2022-12-09T15:38:41.097Z,-0.13
2022-12-09T15:41:27.957Z,-0.12
2022-12-09T15:43:59.377Z,-0.18
2022-12-09T15:46:27.706Z,-0.22
2022-12-09T15:48:57.444Z,-0.23
2022-12-09T15:51:26.770Z,-0.24
2022-12-09T15:53:58.518Z,-0.23
2022-12-09T15:56:31.268Z,-0.28
2022-12-09T15:59:12.959Z,-0.25
2022-12-09T16:01:42.107Z,-0.26
2022-12-09T16:04:09.920Z,-0.30
2022-12-09T16:06:37.712Z,-0.25
2022-12-09T16:09:13.743Z,-0.22
2022-12-09T16:11:52.941Z,-0.21
2022-12-09T16:14:21.921Z,-0.17
2022-12-09T16:17:00.187Z,-0.16
2022-12-09T16:19:36.780Z,-0.19
2022-12-09T16:22:07.541Z,-0.18
2022-12-09T16:25:06.049Z,-0.19
2022-12-09T16:27:25.390Z,-0.19
2022-12-09T16:30:14.372Z,-0.15
2022-12-09T16:32:47.509Z,-0.15
2022-12-09T16:35:17.288Z,-0.12
2022-12-09T16:38:13.949Z,-0.11
2022-12-09T16:40:43.760Z,-0.16
2022-12-09T16:43:16.558Z,-0.13
2022-12-09T16:45:50.534Z,-0.13
2022-12-09T16:48:19.202Z,-0.11
2022-12-09T16:50:56.173Z,-0.11
2022-12-09T16:53:26.904Z,-0.13
2022-12-09T16:55:55.897Z,-0.13
2022-12-09T16:58:22.974Z,-0.12
2022-12-09T17:00:50.505Z,-0.10
2022-12-09T17:03:30.403Z,-0.09
2022-12-09T17:05:57.141Z,-0.08
2022-12-09T17:08:23.939Z,-0.09
2022-12-09T17:10:50.671Z,-0.15
2022-12-09T17:13:17.362Z,-0.13
2022-12-09T17:15:44.001Z,-0.11
2022-12-09T17:18:11.147Z,-0.14
2022-12-09T17:20:38.457Z,-0.13
2022-12-09T17:23:05.452Z,-0.10
2022-12-09T17:25:33.330Z,-0.10
2022-12-09T17:28:05.261Z,-0.13
2022-12-09T17:30:31.971Z,-0.15
2022-12-09T17:32:59.709Z,-0.14
2022-12-09T17:35:27.183Z,-0.21
2022-12-09T17:37:53.825Z,-0.25
2022-12-09T17:40:20.504Z,-0.29
2022-12-09T17:42:47.207Z,-0.31
2022-12-09T17:45:13.912Z,-0.28
2022-12-09T17:47:40.569Z,-0.28
2022-12-09T17:50:07.659Z,-0.31
2022-12-09T17:52:34.647Z,-0.31
2022-12-09T17:55:01.406Z,-0.28
2022-12-09T17:57:28.128Z,-0.29
2022-12-09T17:59:54.745Z,-0.28
2022-12-09T18:02:21.450Z,-0.28
2022-12-09T18:04:48.167Z,-0.31
2022-12-09T18:07:14.832Z,-0.38
2022-12-09T18:09:41.517Z,-0.36
2022-12-09T18:12:08.168Z,-0.36
2022-12-09T18:14:34.889Z,-0.33
2022-12-09T18:17:01.654Z,-0.29
2022-12-09T18:19:29.978Z,-0.39
2022-12-09T18:21:57.421Z,-0.36
2022-12-09T18:24:24.180Z,-0.33
2022-12-09T18:26:50.849Z,-0.41
2022-12-09T18:29:17.645Z,-0.33
2022-12-09T18:31:49.572Z,-0.34
2022-12-09T18:34:19.379Z,-0.33
2022-12-09T18:36:46.082Z,-0.33
2022-12-09T18:39:12.792Z,-0.29
2022-12-09T18:41:39.470Z,-0.29
2022-12-09T18:44:07.301Z,-0.22
2022-12-09T18:46:37.081Z,-0.22
2022-12-09T18:49:24.708Z,-0.26
2022-12-09T18:51:52.733Z,-0.26
2022-12-09T18:54:23.474Z,-0.27
2022-12-09T18:56:51.113Z,-0.28
2022-12-09T18:59:19.324Z,-0.29
2022-12-09T19:01:47.142Z,-0.30
2022-12-09T19:04:16.807Z,-0.37
2022-12-09T19:06:45.769Z,-0.38
2022-12-09T19:09:24.184Z,-0.38
2022-12-09T19:11:52.244Z,-0.37
2022-12-09T19:14:21.309Z,-0.38
2022-12-09T19:16:48.319Z,-0.34
2022-12-09T19:19:21.824Z,-0.33
2022-12-09T19:21:48.809Z,-0.32
2022-12-09T19:24:18.217Z,-0.50
2022-12-09T19:26:45.647Z,-0.59
2022-12-09T19:29:13.535Z,-0.73
2022-12-09T19:31:43.463Z,-0.71
2022-12-09T19:34:36.528Z,-0.57
2022-12-09T19:37:03.783Z,-0.53
2022-12-09T19:39:31.708Z,-0.49
2022-12-09T19:41:59.009Z,-0.46
2022-12-09T19:44:52.659Z,-0.46
2022-12-09T19:47:13.455Z,-0.42
2022-12-09T19:49:42.115Z,-0.39
2022-12-09T19:52:08.795Z,-0.35
2022-12-09T19:54:35.888Z,-0.41
2022-12-09T19:57:02.636Z,-0.44
2022-12-09T19:59:29.404Z,-0.38
2022-12-09T20:01:56.205Z,-0.40
2022-12-09T20:07:11.161Z,-0.34
2022-12-09T20:09:38.080Z,-0.32
2022-12-09T20:12:05.089Z,-0.28
2022-12-09T20:14:31.780Z,-0.37
2022-12-09T20:16:58.407Z,-0.38
2022-12-09T20:19:25.167Z,-0.32
2022-12-09T20:21:51.905Z,-0.30
2022-12-09T20:24:18.742Z,-0.28
2022-12-09T20:26:45.436Z,-0.26
2022-12-09T20:29:12.190Z,-0.30
2022-12-09T20:31:39.667Z,-0.33
2022-12-09T20:34:10.758Z,-0.32
2022-12-09T20:36:40.650Z,-0.29
2022-12-09T20:39:12.600Z,-0.37
2022-12-09T20:41:40.084Z,-0.45
2022-12-09T20:44:06.795Z,-0.43
2022-12-09T20:46:33.859Z,-0.43
2022-12-09T20:49:00.761Z,-0.44
2022-12-09T20:51:30.650Z,-0.40
2022-12-09T20:53:58.602Z,-0.45
2022-12-09T20:56:27.210Z,-0.44
2022-12-09T20:58:54.921Z,-0.45
2022-12-09T21:01:23.632Z,-0.43
2022-12-09T21:03:51.536Z,-0.44
2022-12-09T21:06:20.522Z,-0.38
2022-12-09T21:08:47.892Z,-0.33
2022-12-09T21:11:17.657Z,-0.31
2022-12-09T21:13:46.926Z,-0.32
2022-12-09T21:16:20.324Z,-0.44
2022-12-09T21:18:51.075Z,-0.47
2022-12-09T21:21:18.945Z,-0.48
2022-12-09T21:23:46.175Z,-0.55
2022-12-09T21:26:18.803Z,-0.51
2022-12-09T21:28:47.106Z,-0.47
2022-12-09T21:31:14.984Z,-0.47
2022-12-09T21:33:42.970Z,-0.48
2022-12-09T21:36:12.846Z,-0.54
2022-12-09T21:38:40.460Z,-0.50
2022-12-09T21:41:18.742Z,-0.47
2022-12-09T21:43:46.313Z,-0.45
2022-12-09T21:46:34.520Z,-0.43
2022-12-09T21:49:04.215Z,-0.43
2022-12-09T21:51:32.370Z,-0.29
2022-12-09T21:53:59.478Z,-0.33
2022-12-09T21:56:30.181Z,-0.38
2022-12-09T21:58:58.308Z,-0.48
2022-12-09T22:01:34.056Z,-0.48
2022-12-09T22:04:03.364Z,-0.52
2022-12-09T22:06:30.542Z,-0.44
2022-12-09T22:09:01.259Z,-0.45
2022-12-09T22:11:31.760Z,-0.42
2022-12-09T22:14:00.750Z,-0.35
2022-12-09T22:16:31.641Z,-0.37
2022-12-09T22:19:00.627Z,-0.37
2022-12-09T22:21:29.633Z,-0.45
2022-12-09T22:23:59.461Z,-0.45
2022-12-09T22:26:27.069Z,-0.36
2022-12-09T22:28:54.207Z,-0.36
2022-12-09T22:31:23.863Z,-0.35
2022-12-09T22:33:52.639Z,-0.34
2022-12-09T22:36:20.471Z,-0.35
2022-12-09T22:38:47.927Z,-0.37
2022-12-09T22:41:20.983Z,-0.35
2022-12-09T22:43:49.076Z,-0.26
2022-12-09T22:46:29.205Z,-0.26
2022-12-09T22:48:57.887Z,-0.30
2022-12-09T22:51:27.626Z,-0.31
2022-12-09T22:53:56.160Z,-0.29
2022-12-09T22:56:23.899Z,-0.31
2022-12-09T22:58:51.055Z,-0.36
2022-12-09T23:01:21.328Z,-0.34
2022-12-09T23:03:48.031Z,-0.36
2022-12-09T23:06:14.923Z,-0.39
2022-12-09T23:08:43.412Z,-0.37
2022-12-09T23:11:16.081Z,-0.36
2022-12-09T23:13:43.300Z,-0.33
2022-12-09T23:16:16.151Z,-0.31
2022-12-09T23:18:43.287Z,-0.29
2022-12-09T23:21:16.205Z,-0.29
2022-12-09T23:23:43.220Z,-0.30
2022-12-09T23:26:15.359Z,-0.30
2022-12-09T23:28:45.093Z,-0.38
2022-12-09T23:31:14.477Z,-0.35
2022-12-09T23:33:43.345Z,-0.33
2022-12-09T23:36:18.515Z,-0.40
2022-12-09T23:38:45.770Z,-0.48
2022-12-09T23:41:12.747Z,-0.44
2022-12-09T23:43:40.162Z,-0.40
2022-12-09T23:46:15.162Z,-0.38
2022-12-09T23:48:44.343Z,-0.32
2022-12-09T23:51:17.955Z,-0.32
2022-12-09T23:53:46.420Z,-0.34
2022-12-09T23:56:15.918Z,-0.39
2022-12-09T23:58:43.260Z,-0.32
